sensor_id;sensor_type;location;lat;lon;timestamp;pressure;altitude;pressure_sealevel;temperature;humidity
70343;BME280;57767;42.068;24.752;2023-04-19T00:00:59;98456.81;;;11.39;86.64
70343;BME280;57767;42.068;24.752;2023-04-19T00:02:02;98446.66;;;11.36;86.83
70343;BME280;57767;42.068;24.752;2023-04-19T00:03:07;98451.53;;;11.39;87.20
70343;BME280;57767;42.068;24.752;2023-04-19T00:04:09;98446.66;;;11.36;87.36
70343;BME280;57767;42.068;24.752;2023-04-19T00:05:12;98444.09;;;11.29;86.92
70343;BME280;57767;42.068;24.752;2023-04-19T00:06:14;98440.84;;;11.27;87.37
70343;BME280;57767;42.068;24.752;2023-04-19T00:07:16;98445.13;;;11.28;87.15
70343;BME280;57767;42.068;24.752;2023-04-19T00:08:19;98442.72;;;11.27;87.09
70343;BME280;57767;42.068;24.752;2023-04-19T00:09:24;98431.56;;;11.25;87.63
70343;BME280;57767;42.068;24.752;2023-04-19T00:10:25;98435.00;;;11.25;86.92
70343;BME280;57767;42.068;24.752;2023-04-19T00:11:27;98430.97;;;11.23;87.24
70343;BME280;57767;42.068;24.752;2023-04-19T00:12:29;98428.34;;;11.23;87.01
70343;BME280;57767;42.068;24.752;2023-04-19T00:13:31;98421.88;;;11.19;86.80
70343;BME280;57767;42.068;24.752;2023-04-19T00:14:32;98424.59;;;11.12;85.92
70343;BME280;57767;42.068;24.752;2023-04-19T00:15:34;98419.53;;;11.10;86.55
70343;BME280;57767;42.068;24.752;2023-04-19T00:16:36;98427.47;;;11.10;86.42
70343;BME280;57767;42.068;24.752;2023-04-19T00:17:38;98419.59;;;11.04;85.56
70343;BME280;57767;42.068;24.752;2023-04-19T00:18:39;98417.63;;;10.99;86.34
70343;BME280;57767;42.068;24.752;2023-04-19T00:19:42;98421.75;;;10.95;86.53
70343;BME280;57767;42.068;24.752;2023-04-19T00:20:45;98422.53;;;10.96;86.29
70343;BME280;57767;42.068;24.752;2023-04-19T00:21:47;98398.84;;;10.89;85.99
70343;BME280;57767;42.068;24.752;2023-04-19T00:22:48;98424.16;;;10.97;86.39
70343;BME280;57767;42.068;24.752;2023-04-19T00:23:50;98418.50;;;10.93;86.49
70343;BME280;57767;42.068;24.752;2023-04-19T00:24:52;98416.09;;;10.92;86.50
70343;BME280;57767;42.068;24.752;2023-04-19T00:25:54;98402.97;;;10.85;86.89
70343;BME280;57767;42.068;24.752;2023-04-19T00:26:56;98413.44;;;10.92;86.64
70343;BME280;57767;42.068;24.752;2023-04-19T00:27:57;98415.75;;;10.88;86.38
70343;BME280;57767;42.068;24.752;2023-04-19T00:28:59;98400.31;;;10.85;86.36
70343;BME280;57767;42.068;24.752;2023-04-19T00:30:01;98419.97;;;10.89;85.96
70343;BME280;57767;42.068;24.752;2023-04-19T00:31:03;98413.09;;;10.88;85.73
70343;BME280;57767;42.068;24.752;2023-04-19T00:32:04;98414.94;;;10.88;85.94
70343;BME280;57767;42.068;24.752;2023-04-19T00:33:06;98410.28;;;10.83;86.73
70343;BME280;57767;42.068;24.752;2023-04-19T00:34:13;98407.22;;;10.86;86.22
70343;BME280;57767;42.068;24.752;2023-04-19T00:35:15;98415.16;;;10.86;86.69
70343;BME280;57767;42.068;24.752;2023-04-19T00:36:17;98407.00;;;10.88;86.32
70343;BME280;57767;42.068;24.752;2023-04-19T00:37:19;98406.03;;;10.82;85.52
70343;BME280;57767;42.068;24.752;2023-04-19T00:38:21;98411.53;;;10.81;85.65
70343;BME280;57767;42.068;24.752;2023-04-19T00:39:23;98405.00;;;10.83;85.70
70343;BME280;57767;42.068;24.752;2023-04-19T00:40:24;98403.63;;;10.81;85.04
70343;BME280;57767;42.068;24.752;2023-04-19T00:41:26;98402.00;;;10.80;85.36
70343;BME280;57767;42.068;24.752;2023-04-19T00:42:28;98397.97;;;10.77;85.00
70343;BME280;57767;42.068;24.752;2023-04-19T00:43:30;98409.13;;;10.79;85.43
70343;BME280;57767;42.068;24.752;2023-04-19T00:44:31;98407.50;;;10.78;85.19
70343;BME280;57767;42.068;24.752;2023-04-19T00:45:34;98402.09;;;10.73;85.57
70343;BME280;57767;42.068;24.752;2023-04-19T00:46:37;98410.13;;;10.78;85.60
70343;BME280;57767;42.068;24.752;2023-04-19T00:47:39;98403.91;;;10.72;85.10
70343;BME280;57767;42.068;24.752;2023-04-19T00:48:41;98399.56;;;10.78;85.51
70343;BME280;57767;42.068;24.752;2023-04-19T00:49:43;98407.88;;;10.82;85.94
70343;BME280;57767;42.068;24.752;2023-04-19T00:50:45;98415.59;;;10.83;86.28
70343;BME280;57767;42.068;24.752;2023-04-19T00:51:48;98405.81;;;10.84;86.09
70343;BME280;57767;42.068;24.752;2023-04-19T00:52:52;98403.84;;;10.79;85.59
70343;BME280;57767;42.068;24.752;2023-04-19T00:53:56;98409.50;;;10.83;86.09
70343;BME280;57767;42.068;24.752;2023-04-19T00:54:59;98410.09;;;10.85;85.32
70343;BME280;57767;42.068;24.752;2023-04-19T00:56:02;98404.28;;;10.76;85.43
70343;BME280;57767;42.068;24.752;2023-04-19T00:57:05;98405.44;;;10.80;85.33
70343;BME280;57767;42.068;24.752;2023-04-19T00:58:08;98404.22;;;10.83;85.69
70343;BME280;57767;42.068;24.752;2023-04-19T00:59:10;98408.25;;;10.85;85.85
70343;BME280;57767;42.068;24.752;2023-04-19T01:00:12;98404.59;;;10.86;85.34
70343;BME280;57767;42.068;24.752;2023-04-19T01:01:15;98392.84;;;10.82;85.41
70343;BME280;57767;42.068;24.752;2023-04-19T01:02:17;98404.59;;;10.86;85.66
70343;BME280;57767;42.068;24.752;2023-04-19T01:03:19;98402.53;;;10.88;85.21
70343;BME280;57767;42.068;24.752;2023-04-19T01:04:21;98399.72;;;10.83;85.60
70343;BME280;57767;42.068;24.752;2023-04-19T01:05:23;98401.34;;;10.84;84.54
70343;BME280;57767;42.068;24.752;2023-04-19T01:06:28;98397.69;;;10.85;85.22
70343;BME280;57767;42.068;24.752;2023-04-19T01:07:32;98392.84;;;10.82;85.20
70343;BME280;57767;42.068;24.752;2023-04-19T01:08:34;98400.53;;;10.84;84.42
70343;BME280;57767;42.068;24.752;2023-04-19T01:09:39;98388.44;;;10.76;84.81
70343;BME280;57767;42.068;24.752;2023-04-19T01:10:41;98397.91;;;10.84;84.97
70343;BME280;57767;42.068;24.752;2023-04-19T01:11:43;98389.16;;;10.83;84.55
70343;BME280;57767;42.068;24.752;2023-04-19T01:12:45;98398.06;;;10.89;85.43
70343;BME280;57767;42.068;24.752;2023-04-19T01:13:46;98396.19;;;10.89;84.67
70343;BME280;57767;42.068;24.752;2023-04-19T01:14:49;98396.34;;;10.94;85.08
70343;BME280;57767;42.068;24.752;2023-04-19T01:15:50;98395.91;;;10.97;84.85
70343;BME280;57767;42.068;24.752;2023-04-19T01:16:52;98392.84;;;11.00;84.90
70343;BME280;57767;42.068;24.752;2023-04-19T01:17:55;98391.81;;;11.01;85.32
70343;BME280;57767;42.068;24.752;2023-04-19T01:18:57;98400.88;;;11.05;85.43
70343;BME280;57767;42.068;24.752;2023-04-19T01:20:04;98380.19;;;11.02;85.35
70343;BME280;57767;42.068;24.752;2023-04-19T01:21:09;98390.47;;;11.10;84.78
70343;BME280;57767;42.068;24.752;2023-04-19T01:22:17;98392.09;;;11.11;84.88
70343;BME280;57767;42.068;24.752;2023-04-19T01:23:19;98373.00;;;11.09;84.81
70343;BME280;57767;42.068;24.752;2023-04-19T01:24:21;98387.94;;;11.16;85.28
70343;BME280;57767;42.068;24.752;2023-04-19T01:25:23;98389.13;;;11.20;84.65
70343;BME280;57767;42.068;24.752;2023-04-19T01:26:25;98389.13;;;11.20;84.76
70343;BME280;57767;42.068;24.752;2023-04-19T01:27:27;98389.72;;;11.22;85.36
70343;BME280;57767;42.068;24.752;2023-04-19T01:28:28;98388.09;;;11.21;85.43
70343;BME280;57767;42.068;24.752;2023-04-19T01:29:30;98381.78;;;11.22;84.91
70343;BME280;57767;42.068;24.752;2023-04-19T01:30:33;98383.53;;;11.28;85.12
70343;BME280;57767;42.068;24.752;2023-04-19T01:31:35;98388.00;;;11.27;84.26
70343;BME280;57767;42.068;24.752;2023-04-19T01:32:37;98380.66;;;11.29;84.00
70343;BME280;57767;42.068;24.752;2023-04-19T01:33:39;98375.38;;;11.29;84.27
70343;BME280;57767;42.068;24.752;2023-04-19T01:34:41;98382.88;;;11.32;83.55
70343;BME280;57767;42.068;24.752;2023-04-19T01:35:43;98377.00;;;11.30;83.16
70343;BME280;57767;42.068;24.752;2023-04-19T01:36:45;98382.28;;;11.30;82.86
70343;BME280;57767;42.068;24.752;2023-04-19T01:37:46;98377.44;;;11.27;82.24
70343;BME280;57767;42.068;24.752;2023-04-19T01:38:48;98376.50;;;11.22;82.30
70343;BME280;57767;42.068;24.752;2023-04-19T01:39:50;98378.72;;;11.25;82.58
70343;BME280;57767;42.068;24.752;2023-04-19T01:40:52;98378.13;;;11.23;82.03
70343;BME280;57767;42.068;24.752;2023-04-19T01:41:54;98379.16;;;11.22;82.17
70343;BME280;57767;42.068;24.752;2023-04-19T01:42:55;98376.50;;;11.22;82.57
70343;BME280;57767;42.068;24.752;2023-04-19T01:43:57;98372.47;;;11.19;82.15
70343;BME280;57767;42.068;24.752;2023-04-19T01:44:59;98380.19;;;11.21;82.20
70343;BME280;57767;42.068;24.752;2023-04-19T01:46:01;98373.28;;;11.20;82.04
70343;BME280;57767;42.068;24.752;2023-04-19T01:47:03;98371.28;;;11.15;82.54
70343;BME280;57767;42.068;24.752;2023-04-19T01:48:06;98376.13;;;11.18;82.41
70343;BME280;57767;42.068;24.752;2023-04-19T01:49:08;98373.72;;;11.17;82.76
70343;BME280;57767;42.068;24.752;2023-04-19T01:50:10;98367.41;;;11.18;82.11
70343;BME280;57767;42.068;24.752;2023-04-19T01:51:11;98371.06;;;11.17;81.76
70343;BME280;57767;42.068;24.752;2023-04-19T01:52:13;98362.22;;;11.11;81.16
70343;BME280;57767;42.068;24.752;2023-04-19T01:53:15;98363.47;;;11.08;82.30
70343;BME280;57767;42.068;24.752;2023-04-19T01:54:17;98374.63;;;11.10;82.55
70343;BME280;57767;42.068;24.752;2023-04-19T01:55:18;98376.44;;;11.10;82.41
70343;BME280;57767;42.068;24.752;2023-04-19T01:56:20;98366.69;;;11.10;82.61
70343;BME280;57767;42.068;24.752;2023-04-19T01:57:22;98364.50;;;11.07;82.44
70343;BME280;57767;42.068;24.752;2023-04-19T01:58:24;98366.09;;;11.08;82.10
70343;BME280;57767;42.068;24.752;2023-04-19T01:59:25;98367.13;;;11.07;82.06
70343;BME280;57767;42.068;24.752;2023-04-19T02:00:27;98361.25;;;11.05;81.85
70343;BME280;57767;42.068;24.752;2023-04-19T02:01:29;98359.06;;;11.02;82.40
70343;BME280;57767;42.068;24.752;2023-04-19T02:02:31;98359.66;;;11.04;81.68
70343;BME280;57767;42.068;24.752;2023-04-19T02:03:33;98363.69;;;11.07;81.58
70343;BME280;57767;42.068;24.752;2023-04-19T02:04:35;98361.84;;;11.07;81.53
70343;BME280;57767;42.068;24.752;2023-04-19T02:05:38;98359.44;;;11.06;81.95
70343;BME280;57767;42.068;24.752;2023-04-19T02:06:40;98363.69;;;11.07;82.21
70343;BME280;57767;42.068;24.752;2023-04-19T02:07:42;98366.09;;;11.08;81.42
70343;BME280;57767;42.068;24.752;2023-04-19T02:08:43;98359.00;;;11.09;81.63
70343;BME280;57767;42.068;24.752;2023-04-19T02:09:45;98362.44;;;11.09;81.97
70343;BME280;57767;42.068;24.752;2023-04-19T02:10:47;98364.84;;;11.11;81.35
70343;BME280;57767;42.068;24.752;2023-04-19T02:11:49;98355.53;;;11.08;81.30
70343;BME280;57767;42.068;24.752;2023-04-19T02:12:50;98362.22;;;11.11;81.36
70343;BME280;57767;42.068;24.752;2023-04-19T02:13:52;98355.91;;;11.12;80.68
70343;BME280;57767;42.068;24.752;2023-04-19T02:14:54;98352.47;;;11.11;81.11
70343;BME280;57767;42.068;24.752;2023-04-19T02:16:00;98362.44;;;11.09;80.86
70343;BME280;57767;42.068;24.752;2023-04-19T02:17:03;98353.13;;;11.07;80.88
70343;BME280;57767;42.068;24.752;2023-04-19T02:18:04;98356.34;;;11.09;80.19
70343;BME280;57767;42.068;24.752;2023-04-19T02:19:07;98352.31;;;11.06;79.97
70343;BME280;57767;42.068;24.752;2023-04-19T02:20:09;98344.38;;;11.06;79.91
70343;BME280;57767;42.068;24.752;2023-04-19T02:21:11;98349.28;;;11.03;79.34
70343;BME280;57767;42.068;24.752;2023-04-19T02:22:13;98344.69;;;10.98;80.25
70343;BME280;57767;42.068;24.752;2023-04-19T02:23:14;98342.66;;;11.00;79.58
70343;BME280;57767;42.068;24.752;2023-04-19T02:24:16;98344.91;;;10.97;79.64
70343;BME280;57767;42.068;24.752;2023-04-19T02:25:18;98348.00;;;10.94;80.31
70343;BME280;57767;42.068;24.752;2023-04-19T02:26:20;98338.91;;;10.90;80.00
70343;BME280;57767;42.068;24.752;2023-04-19T02:27:22;98338.69;;;10.91;80.49
70343;BME280;57767;42.068;24.752;2023-04-19T02:28:24;98342.34;;;10.90;80.08
70343;BME280;57767;42.068;24.752;2023-04-19T02:29:26;98347.19;;;10.93;80.38
70343;BME280;57767;42.068;24.752;2023-04-19T02:30:28;98346.38;;;10.93;80.27
70343;BME280;57767;42.068;24.752;2023-04-19T02:31:29;98342.13;;;10.92;80.54
70343;BME280;57767;42.068;24.752;2023-04-19T02:32:31;98339.47;;;10.92;80.68
70343;BME280;57767;42.068;24.752;2023-04-19T02:33:34;98340.28;;;10.92;80.71
70343;BME280;57767;42.068;24.752;2023-04-19T02:34:36;98343.53;;;10.94;80.02
70343;BME280;57767;42.068;24.752;2023-04-19T02:35:38;98339.84;;;10.95;79.50
70343;BME280;57767;42.068;24.752;2023-04-19T02:36:40;98336.41;;;10.95;79.99
70343;BME280;57767;42.068;24.752;2023-04-19T02:37:43;98337.06;;;10.90;79.12
70343;BME280;57767;42.068;24.752;2023-04-19T02:38:44;98336.63;;;10.93;79.38
70343;BME280;57767;42.068;24.752;2023-04-19T02:39:46;98326.75;;;10.89;79.67
70343;BME280;57767;42.068;24.752;2023-04-19T02:40:48;98346.97;;;10.95;79.45
70343;BME280;57767;42.068;24.752;2023-04-19T02:41:50;98327.78;;;10.88;79.46
70343;BME280;57767;42.068;24.752;2023-04-19T02:42:51;98336.03;;;10.91;79.25
70343;BME280;57767;42.068;24.752;2023-04-19T02:43:53;98336.03;;;10.91;79.67
70343;BME280;57767;42.068;24.752;2023-04-19T02:44:55;98336.03;;;10.91;79.91
70343;BME280;57767;42.068;24.752;2023-04-19T02:45:57;98328.31;;;10.90;79.57
70343;BME280;57767;42.068;24.752;2023-04-19T02:46:59;98328.47;;;10.95;79.55
70343;BME280;57767;42.068;24.752;2023-04-19T02:48:01;98342.28;;;10.97;78.71
70343;BME280;57767;42.068;24.752;2023-04-19T02:49:03;98329.72;;;10.92;79.91
70343;BME280;57767;42.068;24.752;2023-04-19T02:50:05;98332.81;;;10.89;79.51
70343;BME280;57767;42.068;24.752;2023-04-19T02:51:07;98341.69;;;10.95;79.17
70343;BME280;57767;42.068;24.752;2023-04-19T02:52:09;98334.94;;;10.99;80.01
70343;BME280;57767;42.068;24.752;2023-04-19T02:53:11;98330.69;;;10.98;79.55
70343;BME280;57767;42.068;24.752;2023-04-19T02:54:13;98333.31;;;10.98;79.45
70343;BME280;57767;42.068;24.752;2023-04-19T02:55:15;98323.19;;;10.95;79.19
70343;BME280;57767;42.068;24.752;2023-04-19T02:56:20;98327.81;;;10.99;80.08
70343;BME280;57767;42.068;24.752;2023-04-19T02:57:22;98333.09;;;10.99;79.85
70343;BME280;57767;42.068;24.752;2023-04-19T02:58:23;98328.25;;;10.96;80.29
70343;BME280;57767;42.068;24.752;2023-04-19T02:59:25;98330.91;;;10.96;79.77
70343;BME280;57767;42.068;24.752;2023-04-19T03:00:27;98335.75;;;10.99;79.90
70343;BME280;57767;42.068;24.752;2023-04-19T03:01:29;98328.13;;;10.91;79.70
70343;BME280;57767;42.068;24.752;2023-04-19T03:02:31;98327.66;;;10.94;79.46
70343;BME280;57767;42.068;24.752;2023-04-19T03:03:33;98328.47;;;10.95;80.02
70343;BME280;57767;42.068;24.752;2023-04-19T03:04:35;98331.28;;;11.00;80.07
70343;BME280;57767;42.068;24.752;2023-04-19T03:05:37;98334.13;;;10.98;79.51
70343;BME280;57767;42.068;24.752;2023-04-19T03:06:39;98331.28;;;11.00;79.37
70343;BME280;57767;42.068;24.752;2023-04-19T03:07:42;98330.09;;;10.96;79.54
70343;BME280;57767;42.068;24.752;2023-04-19T03:08:45;98339.53;;;11.03;79.52
70343;BME280;57767;42.068;24.752;2023-04-19T03:09:47;98329.44;;;11.00;80.22
70343;BME280;57767;42.068;24.752;2023-04-19T03:10:48;98338.97;;;11.01;79.94
70343;BME280;57767;42.068;24.752;2023-04-19T03:11:50;98342.19;;;11.03;80.02
70343;BME280;57767;42.068;24.752;2023-04-19T03:12:52;98341.03;;;10.99;79.80
70343;BME280;57767;42.068;24.752;2023-04-19T03:13:53;98342.19;;;11.03;80.71
70343;BME280;57767;42.068;24.752;2023-04-19T03:14:55;98341.97;;;11.05;80.83
70343;BME280;57767;42.068;24.752;2023-04-19T03:15:57;98340.56;;;11.02;80.38
70343;BME280;57767;42.068;24.752;2023-04-19T03:16:59;98328.25;;;10.96;80.37
70343;BME280;57767;42.068;24.752;2023-04-19T03:18:00;98334.47;;;11.02;80.29
70343;BME280;57767;42.068;24.752;2023-04-19T03:19:02;98338.72;;;11.03;80.28
70343;BME280;57767;42.068;24.752;2023-04-19T03:20:05;98334.13;;;10.98;79.80
70343;BME280;57767;42.068;24.752;2023-04-19T03:21:12;98331.06;;;11.01;79.92
70343;BME280;57767;42.068;24.752;2023-04-19T03:22:14;98331.50;;;10.98;79.40
70343;BME280;57767;42.068;24.752;2023-04-19T03:23:16;98335.97;;;10.98;80.20
70343;BME280;57767;42.068;24.752;2023-04-19T03:24:18;98339.19;;;11.00;79.31
70343;BME280;57767;42.068;24.752;2023-04-19T03:25:20;98332.16;;;10.94;79.72
70343;BME280;57767;42.068;24.752;2023-04-19T03:26:22;98340.22;;;10.99;80.43
70343;BME280;57767;42.068;24.752;2023-04-19T03:27:24;98332.97;;;10.94;80.30
70343;BME280;57767;42.068;24.752;2023-04-19T03:28:26;98334.34;;;10.97;80.28
70343;BME280;57767;42.068;24.752;2023-04-19T03:29:28;98335.59;;;10.94;80.08
70343;BME280;57767;42.068;24.752;2023-04-19T03:30:29;98338.59;;;10.98;80.23
70343;BME280;57767;42.068;24.752;2023-04-19T03:31:31;98345.84;;;11.02;80.32
70343;BME280;57767;42.068;24.752;2023-04-19T03:32:33;98338.97;;;11.01;80.48
70343;BME280;57767;42.068;24.752;2023-04-19T03:33:35;98342.19;;;11.03;80.06
70343;BME280;57767;42.068;24.752;2023-04-19T03:34:36;98340.34;;;11.04;80.05
70343;BME280;57767;42.068;24.752;2023-04-19T03:35:38;98342.66;;;11.00;80.08
70343;BME280;57767;42.068;24.752;2023-04-19T03:36:40;98345.41;;;11.05;79.66
70343;BME280;57767;42.068;24.752;2023-04-19T03:37:42;98343.56;;;11.06;79.59
70343;BME280;57767;42.068;24.752;2023-04-19T03:38:44;98343.78;;;11.04;79.87
70343;BME280;57767;42.068;24.752;2023-04-19T03:39:46;98336.34;;;11.01;79.07
70343;BME280;57767;42.068;24.752;2023-04-19T03:40:47;98346.31;;;10.99;79.13
70343;BME280;57767;42.068;24.752;2023-04-19T03:41:49;98343.78;;;11.04;79.02
70343;BME280;57767;42.068;24.752;2023-04-19T03:42:51;98342.66;;;11.00;79.78
70343;BME280;57767;42.068;24.752;2023-04-19T03:43:53;98346.09;;;11.01;78.77
70343;BME280;57767;42.068;24.752;2023-04-19T03:44:55;98342.06;;;10.98;79.92
70343;BME280;57767;42.068;24.752;2023-04-19T03:45:57;98348.38;;;10.97;79.25
70343;BME280;57767;42.068;24.752;2023-04-19T03:46:59;98341.25;;;10.98;79.50
70343;BME280;57767;42.068;24.752;2023-04-19T03:48:00;98334.19;;;10.92;79.33
70343;BME280;57767;42.068;24.752;2023-04-19T03:49:03;98345.13;;;10.95;79.08
70343;BME280;57767;42.068;24.752;2023-04-19T03:50:05;98335.22;;;10.91;79.28
70343;BME280;57767;42.068;24.752;2023-04-19T03:51:08;98324.53;;;10.86;79.15
70343;BME280;57767;42.068;24.752;2023-04-19T03:52:09;98334.56;;;10.95;79.07
70343;BME280;57767;42.068;24.752;2023-04-19T03:53:11;98329.72;;;10.92;78.86
70343;BME280;57767;42.068;24.752;2023-04-19T03:54:13;98346.53;;;10.98;79.49
70343;BME280;57767;42.068;24.752;2023-04-19T03:55:15;98342.28;;;10.97;79.19
70343;BME280;57767;42.068;24.752;2023-04-19T03:56:17;98333.41;;;10.91;78.82
70343;BME280;57767;42.068;24.752;2023-04-19T03:57:19;98339.47;;;10.92;78.45
70343;BME280;57767;42.068;24.752;2023-04-19T03:58:21;98338.25;;;10.94;78.24
70343;BME280;57767;42.068;24.752;2023-04-19T03:59:23;98338.91;;;10.90;78.06
70343;BME280;57767;42.068;24.752;2023-04-19T04:00:24;98336.94;;;10.85;78.48
70343;BME280;57767;42.068;24.752;2023-04-19T04:01:27;98338.69;;;10.91;78.46
70343;BME280;57767;42.068;24.752;2023-04-19T04:02:29;98342.94;;;10.92;78.58
70343;BME280;57767;42.068;24.752;2023-04-19T04:03:31;98340.28;;;10.92;78.86
70343;BME280;57767;42.068;24.752;2023-04-19T04:04:34;98345.56;;;10.92;78.36
70343;BME280;57767;42.068;24.752;2023-04-19T04:05:36;98343.75;;;10.93;78.56
70343;BME280;57767;42.068;24.752;2023-04-19T04:06:38;98342.72;;;10.94;78.55
70343;BME280;57767;42.068;24.752;2023-04-19T04:07:40;98351.28;;;10.89;78.04
70343;BME280;57767;42.068;24.752;2023-04-19T04:08:42;98344.53;;;10.93;78.12
70343;BME280;57767;42.068;24.752;2023-04-19T04:09:44;98337.06;;;10.90;78.04
70343;BME280;57767;42.068;24.752;2023-04-19T04:10:48;98345.13;;;10.95;78.33
70343;BME280;57767;42.068;24.752;2023-04-19T04:11:49;98340.66;;;10.96;78.81
70343;BME280;57767;42.068;24.752;2023-04-19T04:12:51;98352.84;;;10.97;78.05
70343;BME280;57767;42.068;24.752;2023-04-19T04:13:54;98344.69;;;10.98;77.82
70343;BME280;57767;42.068;24.752;2023-04-19T04:14:56;98349.53;;;11.01;77.46
70343;BME280;57767;42.068;24.752;2023-04-19T04:15:58;98351.13;;;11.02;77.65
70343;BME280;57767;42.068;24.752;2023-04-19T04:17:00;98341.84;;;11.00;77.25
70343;BME280;57767;42.068;24.752;2023-04-19T04:18:02;98347.25;;;11.05;78.69
70343;BME280;57767;42.068;24.752;2023-04-19T04:19:04;98347.47;;;11.03;77.93
70343;BME280;57767;42.068;24.752;2023-04-19T04:20:06;98335.28;;;11.02;77.61
70343;BME280;57767;42.068;24.752;2023-04-19T04:21:09;98340.56;;;11.02;78.06
70343;BME280;57767;42.068;24.752;2023-04-19T04:22:11;98327.59;;;11.01;77.90
70343;BME280;57767;42.068;24.752;2023-04-19T04:23:13;98330.00;;;11.02;77.23
70343;BME280;57767;42.068;24.752;2023-04-19T04:24:14;98338.50;;;11.04;77.26
70343;BME280;57767;42.068;24.752;2023-04-19T04:25:18;98340.13;;;11.05;76.97
70343;BME280;57767;42.068;24.752;2023-04-19T04:26:23;98328.63;;;11.00;76.45
70343;BME280;57767;42.068;24.752;2023-04-19T04:27:25;98337.47;;;11.05;76.64
70343;BME280;57767;42.068;24.752;2023-04-19T04:28:27;98342.09;;;11.10;76.76
70343;BME280;57767;42.068;24.752;2023-04-19T04:29:31;98345.78;;;11.09;76.69
70343;BME280;57767;42.068;24.752;2023-04-19T04:30:33;98342.91;;;11.10;76.58
70343;BME280;57767;42.068;24.752;2023-04-19T04:31:35;98339.69;;;11.08;76.95
70343;BME280;57767;42.068;24.752;2023-04-19T04:32:37;98335.44;;;11.07;76.87
70343;BME280;57767;42.068;24.752;2023-04-19T04:33:39;98346.97;;;11.13;76.31
70343;BME280;57767;42.068;24.752;2023-04-19T04:34:42;98339.38;;;11.17;76.94
70343;BME280;57767;42.068;24.752;2023-04-19T04:35:44;98339.84;;;11.13;77.03
70343;BME280;57767;42.068;24.752;2023-04-19T04:36:45;98344.66;;;11.17;76.66
70343;BME280;57767;42.068;24.752;2023-04-19T04:37:48;98336.72;;;11.17;77.17
70343;BME280;57767;42.068;24.752;2023-04-19T04:38:49;98333.50;;;11.14;76.22
70343;BME280;57767;42.068;24.752;2023-04-19T04:39:52;98340.75;;;11.19;76.02
70343;BME280;57767;42.068;24.752;2023-04-19T04:40:54;98342.38;;;11.20;76.54
70343;BME280;57767;42.068;24.752;2023-04-19T04:41:56;98341.13;;;11.23;75.89
70343;BME280;57767;42.068;24.752;2023-04-19T04:42:58;98348.38;;;11.27;75.73
70343;BME280;57767;42.068;24.752;2023-04-19T04:44:01;98341.03;;;11.29;75.63
70343;BME280;57767;42.068;24.752;2023-04-19T04:45:13;98338.03;;;11.26;75.56
70343;BME280;57767;42.068;24.752;2023-04-19T04:46:18;98344.25;;;11.31;76.14
70343;BME280;57767;42.068;24.752;2023-04-19T04:47:20;98342.63;;;11.30;76.07
70343;BME280;57767;42.068;24.752;2023-04-19T04:48:22;98342.41;;;11.32;75.87
70343;BME280;57767;42.068;24.752;2023-04-19T04:49:24;98340.34;;;11.34;75.12
70343;BME280;57767;42.068;24.752;2023-04-19T04:50:26;98340.94;;;11.36;75.03
70343;BME280;57767;42.068;24.752;2023-04-19T04:51:28;98344.16;;;11.38;75.04
70343;BME280;57767;42.068;24.752;2023-04-19T04:52:29;98349.47;;;11.38;75.15
70343;BME280;57767;42.068;24.752;2023-04-19T04:53:31;98346.94;;;11.43;75.24
70343;BME280;57767;42.068;24.752;2023-04-19T04:54:33;98337.59;;;11.40;75.30
70343;BME280;57767;42.068;24.752;2023-04-19T04:55:35;98344.28;;;11.43;75.77
70343;BME280;57767;42.068;24.752;2023-04-19T04:56:37;98343.84;;;11.46;75.75
70343;BME280;57767;42.068;24.752;2023-04-19T04:57:39;98340.16;;;11.47;75.72
70343;BME280;57767;42.068;24.752;2023-04-19T04:58:41;98349.28;;;11.51;75.40
70343;BME280;57767;42.068;24.752;2023-04-19T04:59:42;98343.63;;;11.47;75.72
70343;BME280;57767;42.068;24.752;2023-04-19T05:00:44;98347.19;;;11.53;76.06
70343;BME280;57767;42.068;24.752;2023-04-19T05:01:47;98351.44;;;11.54;75.62
70343;BME280;57767;42.068;24.752;2023-04-19T05:02:49;98348.34;;;11.57;75.42
70343;BME280;57767;42.068;24.752;2023-04-19T05:03:51;98353.63;;;11.57;75.20
70343;BME280;57767;42.068;24.752;2023-04-19T05:04:53;98344.69;;;11.58;75.52
70343;BME280;57767;42.068;24.752;2023-04-19T05:05:54;98351.13;;;11.62;75.14
70343;BME280;57767;42.068;24.752;2023-04-19T05:06:56;98345.72;;;11.57;75.54
70343;BME280;57767;42.068;24.752;2023-04-19T05:08:00;98355.38;;;11.63;75.46
70343;BME280;57767;42.068;24.752;2023-04-19T05:09:02;98354.59;;;11.63;75.66
70343;BME280;57767;42.068;24.752;2023-04-19T05:10:04;98358.84;;;11.64;75.96
70343;BME280;57767;42.068;24.752;2023-04-19T05:11:06;98368.13;;;11.66;76.11
70343;BME280;57767;42.068;24.752;2023-04-19T05:12:09;98347.91;;;11.60;76.01
70343;BME280;57767;42.068;24.752;2023-04-19T05:13:11;98357.56;;;11.66;75.64
70343;BME280;57767;42.068;24.752;2023-04-19T05:14:12;98358.59;;;11.65;75.92
70343;BME280;57767;42.068;24.752;2023-04-19T05:15:14;98354.25;;;11.71;75.42
70343;BME280;57767;42.068;24.752;2023-04-19T05:16:16;98359.53;;;11.71;76.01
70343;BME280;57767;42.068;24.752;2023-04-19T05:17:18;98362.53;;;11.74;75.41
70343;BME280;57767;42.068;24.752;2023-04-19T05:18:20;98352.19;;;11.73;74.92
70343;BME280;57767;42.068;24.752;2023-04-19T05:19:22;98356.25;;;11.75;75.86
70343;BME280;57767;42.068;24.752;2023-04-19T05:20:24;98354.19;;;11.77;75.65
70343;BME280;57767;42.068;24.752;2023-04-19T05:21:26;98359.00;;;11.80;75.66
70343;BME280;57767;42.068;24.752;2023-04-19T05:22:27;98362.22;;;11.82;75.52
70343;BME280;57767;42.068;24.752;2023-04-19T05:23:29;98362.22;;;11.82;75.70
70343;BME280;57767;42.068;24.752;2023-04-19T05:24:31;98363.63;;;11.85;75.03
70343;BME280;57767;42.068;24.752;2023-04-19T05:25:33;98360.53;;;11.88;75.31